sensor_id;sensor_type;location;lat;lon;timestamp;pressure;altitude;pressure_sealevel;temperature;humidity
63954;BME280;50128;52.094;5.232;2023-02-20T00:01:10;101149.0;;;-0.88;100.0
63954;BME280;50128;52.094;5.232;2023-02-20T00:04:25;101144.0;;;-0.88;100.0
63954;BME280;50128;52.094;5.232;2023-02-20T00:06:02;101138.0;;;-0.85;100.0
63954;BME280;50128;52.094;5.232;2023-02-20T00:07:38;101134.0;;;-0.86;100.0
63954;BME280;50128;52.094;5.232;2023-02-20T00:09:15;101120.0;;;-0.76;100.0
63954;BME280;50128;52.094;5.232;2023-02-20T00:12:29;101109.0;;;-0.7;100.0
63954;BME280;50128;52.094;5.232;2023-02-20T00:14:06;101103.0;;;-0.68;100.0
63954;BME280;50128;52.094;5.232;2023-02-20T00:15:43;101114.0;;;-0.67;100.0
63954;BME280;50128;52.094;5.232;2023-02-20T00:18:56;101125.0;;;-0.75;100.0
63954;BME280;50128;52.094;5.232;2023-02-20T00:20:35;101136.0;;;-0.71;100.0
63954;BME280;50128;52.094;5.232;2023-02-20T00:22:11;101122.0;;;-0.64;100.0
63954;BME280;50128;52.094;5.232;2023-02-20T00:25:25;101114.0;;;-0.54;100.0
63954;BME280;50128;52.094;5.232;2023-02-20T00:27:02;101114.0;;;-0.56;100.0
63954;BME280;50128;52.094;5.232;2023-02-20T00:28:39;101107.0;;;-0.51;100.0
63954;BME280;50128;52.094;5.232;2023-02-20T00:30:19;101107.0;;;-0.4;100.0
63954;BME280;50128;52.094;5.232;2023-02-20T00:33:36;101109.0;;;-0.43;100.0
63954;BME280;50128;52.094;5.232;2023-02-20T00:35:12;101100.0;;;-0.49;100.0
63954;BME280;50128;52.094;5.232;2023-02-20T00:36:49;101095.0;;;-0.45;100.0
63954;BME280;50128;52.094;5.232;2023-02-20T00:40:05;101091.0;;;-0.6;100.0
63954;BME280;50128;52.094;5.232;2023-02-20T00:41:43;101095.0;;;-0.51;100.0
63954;BME280;50128;52.094;5.232;2023-02-20T00:43:19;101095.0;;;-0.57;100.0
63954;BME280;50128;52.094;5.232;2023-02-20T00:44:56;101093.0;;;-0.53;100.0
63954;BME280;50128;52.094;5.232;2023-02-20T00:48:10;101085.0;;;-0.56;100.0
63954;BME280;50128;52.094;5.232;2023-02-20T00:49:47;101086.0;;;-0.67;100.0
63954;BME280;50128;52.094;5.232;2023-02-20T00:51:24;101082.0;;;-0.69;100.0
63954;BME280;50128;52.094;5.232;2023-02-20T00:54:39;101078.0;;;-0.6;100.0
63954;BME280;50128;52.094;5.232;2023-02-20T00:56:15;101082.0;;;-0.64;100.0
63954;BME280;50128;52.094;5.232;2023-02-20T00:57:51;101080.0;;;-0.55;100.0
63954;BME280;50128;52.094;5.232;2023-02-20T00:59:28;101073.0;;;-0.67;100.0
63954;BME280;50128;52.094;5.232;2023-02-20T01:02:42;101075.0;;;-0.59;100.0
63954;BME280;50128;52.094;5.232;2023-02-20T01:04:19;101071.0;;;-0.69;100.0
63954;BME280;50128;52.094;5.232;2023-02-20T01:05:55;101065.0;;;-0.71;100.0
63954;BME280;50128;52.094;5.232;2023-02-20T01:09:09;101059.0;;;-0.7;100.0
63954;BME280;50128;52.094;5.232;2023-02-20T01:10:48;101057.0;;;-0.77;100.0
63954;BME280;50128;52.094;5.232;2023-02-20T01:12:26;101055.0;;;-0.92;100.0
63954;BME280;50128;52.094;5.232;2023-02-20T01:15:39;101055.0;;;-0.96;100.0
63954;BME280;50128;52.094;5.232;2023-02-20T01:17:15;101026.0;;;-0.93;100.0
63954;BME280;50128;52.094;5.232;2023-02-20T01:18:51;101015.0;;;-0.93;100.0
63954;BME280;50128;52.094;5.232;2023-02-20T01:20:29;101005.0;;;-0.92;100.0
63954;BME280;50128;52.094;5.232;2023-02-20T01:23:44;100998.0;;;-1.0;100.0
63954;BME280;50128;52.094;5.232;2023-02-20T01:25:20;100994.0;;;-1.04;100.0
63954;BME280;50128;52.094;5.232;2023-02-20T01:26:58;100984.0;;;-1.0;100.0
63954;BME280;50128;52.094;5.232;2023-02-20T01:30:12;100993.0;;;-0.95;100.0
63954;BME280;50128;52.094;5.232;2023-02-20T01:31:50;100999.0;;;-1.08;100.0
63954;BME280;50128;52.094;5.232;2023-02-20T01:33:27;100995.0;;;-1.03;100.0
63954;BME280;50128;52.094;5.232;2023-02-20T01:35:06;100992.0;;;-1.03;100.0
63954;BME280;50128;52.094;5.232;2023-02-20T01:38:24;100999.0;;;-1.12;100.0
63954;BME280;50128;52.094;5.232;2023-02-20T01:40:02;100995.0;;;-1.04;100.0
63954;BME280;50128;52.094;5.232;2023-02-20T01:41:39;100997.0;;;-1.06;100.0
63954;BME280;50128;52.094;5.232;2023-02-20T01:44:52;100994.0;;;-0.93;100.0
63954;BME280;50128;52.094;5.232;2023-02-20T01:46:49;100997.0;;;-0.97;100.0
63954;BME280;50128;52.094;5.232;2023-02-20T01:48:26;100990.0;;;-0.95;100.0
63954;BME280;50128;52.094;5.232;2023-02-20T01:50:03;100992.0;;;-0.88;100.0
63954;BME280;50128;52.094;5.232;2023-02-20T01:53:27;100989.0;;;-0.9;100.0
63954;BME280;50128;52.094;5.232;2023-02-20T01:55:09;100987.0;;;-0.81;100.0
63954;BME280;50128;52.094;5.232;2023-02-20T01:56:50;100990.0;;;-0.84;100.0
63954;BME280;50128;52.094;5.232;2023-02-20T01:58:30;100985.0;;;-0.84;100.0
63954;BME280;50128;52.094;5.232;2023-02-20T02:00:13;100987.0;;;-0.79;100.0
63954;BME280;50128;52.094;5.232;2023-02-20T02:03:32;100984.0;;;-0.81;100.0
63954;BME280;50128;52.094;5.232;2023-02-20T02:05:11;100987.0;;;-0.81;100.0
63954;BME280;50128;52.094;5.232;2023-02-20T02:06:51;100989.0;;;-0.75;100.0
63954;BME280;50128;52.094;5.232;2023-02-20T02:10:11;100987.0;;;-0.79;100.0
63954;BME280;50128;52.094;5.232;2023-02-20T02:11:49;100976.0;;;-0.72;100.0
63954;BME280;50128;52.094;5.232;2023-02-20T02:13:26;100970.0;;;-0.6;100.0
63954;BME280;50128;52.094;5.232;2023-02-20T02:15:12;100973.0;;;-0.65;100.0
63954;BME280;50128;52.094;5.232;2023-02-20T02:18:51;100971.0;;;-0.74;100.0
63954;BME280;50128;52.094;5.232;2023-02-20T02:22:10;100975.0;;;-0.74;100.0
63954;BME280;50128;52.094;5.232;2023-02-20T02:24:09;100968.0;;;-0.6;100.0
63954;BME280;50128;52.094;5.232;2023-02-20T02:27:24;100973.0;;;-0.59;100.0
63954;BME280;50128;52.094;5.232;2023-02-20T02:30:28;100965.0;;;-0.57;100.0
63954;BME280;50128;52.094;5.232;2023-02-20T02:32:28;100960.0;;;-0.56;100.0
63954;BME280;50128;52.094;5.232;2023-02-20T02:35:49;100957.0;;;-0.6;100.0
63954;BME280;50128;52.094;5.232;2023-02-20T02:36:51;100962.0;;;-0.52;100.0
63954;BME280;50128;52.094;5.232;2023-02-20T02:38:39;100955.0;;;-0.56;100.0
63954;BME280;50128;52.094;5.232;2023-02-20T02:40:25;100956.0;;;-0.6;100.0
63954;BME280;50128;52.094;5.232;2023-02-20T02:42:09;100952.0;;;-0.54;100.0
63954;BME280;50128;52.094;5.232;2023-02-20T02:45:42;100946.0;;;-0.5;100.0
63954;BME280;50128;52.094;5.232;2023-02-20T02:47:24;100944.0;;;-0.42;100.0
63954;BME280;50128;52.094;5.232;2023-02-20T02:49:06;100946.0;;;-0.43;100.0
63954;BME280;50128;52.094;5.232;2023-02-20T02:50:48;100942.0;;;-0.39;100.0
63954;BME280;50128;52.094;5.232;2023-02-20T02:53:00;100939.0;;;-0.4;100.0
63954;BME280;50128;52.094;5.232;2023-02-20T02:54:38;100939.0;;;-0.41;100.0
63954;BME280;50128;52.094;5.232;2023-02-20T02:58:09;100938.0;;;-0.38;100.0
63954;BME280;50128;52.094;5.232;2023-02-20T02:59:50;100939.0;;;-0.33;100.0
63954;BME280;50128;52.094;5.232;2023-02-20T03:01:33;100938.0;;;-0.34;100.0
63954;BME280;50128;52.094;5.232;2023-02-20T03:03:15;100936.0;;;-0.32;100.0
63954;BME280;50128;52.094;5.232;2023-02-20T03:06:37;100939.0;;;-0.28;100.0
63954;BME280;50128;52.094;5.232;2023-02-20T03:08:26;100934.0;;;-0.32;100.0
63954;BME280;50128;52.094;5.232;2023-02-20T03:10:21;100935.0;;;-0.28;100.0
63954;BME280;50128;52.094;5.232;2023-02-20T03:12:00;100932.0;;;-0.24;100.0
63954;BME280;50128;52.094;5.232;2023-02-20T03:16:00;100930.0;;;-0.27;100.0
63954;BME280;50128;52.094;5.232;2023-02-20T03:17:40;100934.0;;;-0.12;100.0
63954;BME280;50128;52.094;5.232;2023-02-20T03:21:10;100925.0;;;-0.23;100.0
63954;BME280;50128;52.094;5.232;2023-02-20T03:22:54;100922.0;;;-0.22;100.0
63954;BME280;50128;52.094;5.232;2023-02-20T03:24:56;100924.0;;;-0.2;100.0
63954;BME280;50128;52.094;5.232;2023-02-20T03:26:36;100924.0;;;-0.16;100.0
63954;BME280;50128;52.094;5.232;2023-02-20T03:28:17;100925.0;;;-0.17;100.0
63954;BME280;50128;52.094;5.232;2023-02-20T03:31:40;100917.0;;;-0.13;100.0
63954;BME280;50128;52.094;5.232;2023-02-20T03:44:25;100920.0;;;-0.15;100.0
63954;BME280;50128;52.094;5.232;2023-02-20T03:46:06;100916.0;;;-0.11;100.0
63954;BME280;50128;52.094;5.232;2023-02-20T03:47:49;100913.0;;;-0.06;100.0
63954;BME280;50128;52.094;5.232;2023-02-20T03:49:31;100912.0;;;-0.03;100.0
63954;BME280;50128;52.094;5.232;2023-02-20T03:52:52;100912.0;;;-0.03;100.0
63954;BME280;50128;52.094;5.232;2023-02-20T03:54:31;100900.0;;;-0.06;100.0
63954;BME280;50128;52.094;5.232;2023-02-20T03:56:13;100905.0;;;0.01;100.0
63954;BME280;50128;52.094;5.232;2023-02-20T03:57:57;100900.0;;;0.04;100.0
63954;BME280;50128;52.094;5.232;2023-02-20T03:59:39;100899.0;;;0.08;100.0
63954;BME280;50128;52.094;5.232;2023-02-20T04:03:00;100902.0;;;0.08;100.0
63954;BME280;50128;52.094;5.232;2023-02-20T04:04:45;100897.0;;;0.13;100.0
63954;BME280;50128;52.094;5.232;2023-02-20T04:06:28;100891.0;;;0.06;100.0
63954;BME280;50128;52.094;5.232;2023-02-20T04:08:09;100891.0;;;0.04;100.0
63954;BME280;50128;52.094;5.232;2023-02-20T04:11:29;100889.0;;;0.06;100.0
63954;BME280;50128;52.094;5.232;2023-02-20T04:13:09;100894.0;;;0.05;100.0
63954;BME280;50128;52.094;5.232;2023-02-20T04:14:50;100890.0;;;0.11;100.0
63954;BME280;50128;52.094;5.232;2023-02-20T04:16:31;100887.0;;;0.21;100.0
63954;BME280;50128;52.094;5.232;2023-02-20T04:18:14;100890.0;;;0.21;100.0
63954;BME280;50128;52.094;5.232;2023-02-20T04:21:32;100892.0;;;0.12;100.0
63954;BME280;50128;52.094;5.232;2023-02-20T04:23:16;100892.0;;;0.15;100.0
63954;BME280;50128;52.094;5.232;2023-02-20T04:24:56;100889.0;;;0.13;100.0
63954;BME280;50128;52.094;5.232;2023-02-20T04:26:36;100890.0;;;0.11;100.0
63954;BME280;50128;52.094;5.232;2023-02-20T04:29:51;100887.0;;;0.15;100.0
63954;BME280;50128;52.094;5.232;2023-02-20T04:31:28;100888.0;;;0.21;100.0
63954;BME280;50128;52.094;5.232;2023-02-20T04:33:05;100886.0;;;0.2;100.0
63954;BME280;50128;52.094;5.232;2023-02-20T04:36:22;100893.0;;;0.27;100.0
63954;BME280;50128;52.094;5.232;2023-02-20T04:38:00;100893.0;;;0.23;100.0
63954;BME280;50128;52.094;5.232;2023-02-20T04:39:37;100890.0;;;0.21;100.0
63954;BME280;50128;52.094;5.232;2023-02-20T04:41:14;100892.0;;;0.23;100.0
63954;BME280;50128;52.094;5.232;2023-02-20T04:44:31;100889.0;;;0.18;100.0
63954;BME280;50128;52.094;5.232;2023-02-20T04:46:09;100886.0;;;0.29;100.0
63954;BME280;50128;52.094;5.232;2023-02-20T04:47:46;100891.0;;;0.24;100.0
63954;BME280;50128;52.094;5.232;2023-02-20T04:50:59;100880.0;;;0.23;100.0
63954;BME280;50128;52.094;5.232;2023-02-20T04:52:37;100886.0;;;0.29;100.0
63954;BME280;50128;52.094;5.232;2023-02-20T04:54:15;100887.0;;;0.29;100.0
63954;BME280;50128;52.094;5.232;2023-02-20T04:55:51;100887.0;;;0.32;100.0
63954;BME280;50128;52.094;5.232;2023-02-20T04:59:04;100876.0;;;0.36;100.0
63954;BME280;50128;52.094;5.232;2023-02-20T05:00:41;100872.0;;;0.35;100.0
63954;BME280;50128;52.094;5.232;2023-02-20T05:02:20;100871.0;;;0.31;100.0
63954;BME280;50128;52.094;5.232;2023-02-20T05:05:34;100882.0;;;0.37;100.0
63954;BME280;50128;52.094;5.232;2023-02-20T05:07:11;100880.0;;;0.32;100.0
63954;BME280;50128;52.094;5.232;2023-02-20T05:08:47;100877.0;;;0.35;100.0
63954;BME280;50128;52.094;5.232;2023-02-20T05:12:03;100880.0;;;0.34;100.0
63954;BME280;50128;52.094;5.232;2023-02-20T05:13:40;100885.0;;;0.26;100.0
63954;BME280;50128;52.094;5.232;2023-02-20T05:15:17;100876.0;;;0.3;100.0
63954;BME280;50128;52.094;5.232;2023-02-20T05:16:54;100882.0;;;0.38;100.0
63954;BME280;50128;52.094;5.232;2023-02-20T05:20:11;100881.0;;;0.34;100.0
63954;BME280;50128;52.094;5.232;2023-02-20T05:22:23;100876.0;;;0.38;100.0
63954;BME280;50128;52.094;5.232;2023-02-20T05:23:59;100882.0;;;0.44;100.0
63954;BME280;50128;52.094;5.232;2023-02-20T05:25:36;100878.0;;;0.45;100.0
63954;BME280;50128;52.094;5.232;2023-02-20T05:28:53;100877.0;;;0.41;100.0
63954;BME280;50128;52.094;5.232;2023-02-20T05:30:30;100881.0;;;0.43;100.0
63954;BME280;50128;52.094;5.232;2023-02-20T05:32:07;100882.0;;;0.48;100.0
63954;BME280;50128;52.094;5.232;2023-02-20T05:33:43;100883.0;;;0.45;100.0
63954;BME280;50128;52.094;5.232;2023-02-20T05:36:57;100882.0;;;0.54;100.0
63954;BME280;50128;52.094;5.232;2023-02-20T05:38:34;100890.0;;;0.57;100.0
63954;BME280;50128;52.094;5.232;2023-02-20T05:40:11;100886.0;;;0.53;100.0
63954;BME280;50128;52.094;5.232;2023-02-20T05:43:24;100880.0;;;0.61;100.0
63954;BME280;50128;52.094;5.232;2023-02-20T05:45:01;100877.0;;;0.59;100.0
63954;BME280;50128;52.094;5.232;2023-02-20T05:46:41;100877.0;;;0.58;100.0
63954;BME280;50128;52.094;5.232;2023-02-20T05:48:17;100878.0;;;0.51;100.0
63954;BME280;50128;52.094;5.232;2023-02-20T05:51:31;100873.0;;;0.58;100.0
63954;BME280;50128;52.094;5.232;2023-02-20T05:53:08;100876.0;;;0.5;100.0
63954;BME280;50128;52.094;5.232;2023-02-20T05:54:45;100882.0;;;0.56;100.0
63954;BME280;50128;52.094;5.232;2023-02-20T05:57:58;100881.0;;;0.58;100.0
63954;BME280;50128;52.094;5.232;2023-02-20T05:59:36;100862.0;;;0.52;100.0
63954;BME280;50128;52.094;5.232;2023-02-20T06:01:16;100866.0;;;0.52;100.0
63954;BME280;50128;52.094;5.232;2023-02-20T06:02:53;100875.0;;;0.68;100.0
63954;BME280;50128;52.094;5.232;2023-02-20T06:06:06;100867.0;;;0.62;100.0
63954;BME280;50128;52.094;5.232;2023-02-20T06:07:42;100873.0;;;0.52;100.0
63954;BME280;50128;52.094;5.232;2023-02-20T06:09:20;100880.0;;;0.58;100.0
63954;BME280;50128;52.094;5.232;2023-02-20T06:12:33;100870.0;;;0.6;100.0
63954;BME280;50128;52.094;5.232;2023-02-20T06:14:10;100873.0;;;0.59;100.0
63954;BME280;50128;52.094;5.232;2023-02-20T06:15:46;100863.0;;;0.58;100.0
63954;BME280;50128;52.094;5.232;2023-02-20T06:19:00;100866.0;;;0.58;100.0
63954;BME280;50128;52.094;5.232;2023-02-20T06:20:37;100868.0;;;0.63;100.0
63954;BME280;50128;52.094;5.232;2023-02-20T06:22:15;100871.0;;;0.58;100.0
63954;BME280;50128;52.094;5.232;2023-02-20T06:23:52;100874.0;;;0.52;100.0
63954;BME280;50128;52.094;5.232;2023-02-20T06:27:07;100875.0;;;0.52;100.0
63954;BME280;50128;52.094;5.232;2023-02-20T06:28:43;100867.0;;;0.58;100.0
63954;BME280;50128;52.094;5.232;2023-02-20T06:30:20;100865.0;;;0.54;100.0
63954;BME280;50128;52.094;5.232;2023-02-20T06:33:34;100867.0;;;0.58;100.0
63954;BME280;50128;52.094;5.232;2023-02-20T06:35:11;100871.0;;;0.53;100.0
63954;BME280;50128;52.094;5.232;2023-02-20T06:36:49;100865.0;;;0.51;100.0
63954;BME280;50128;52.094;5.232;2023-02-20T06:38:26;100872.0;;;0.53;100.0
63954;BME280;50128;52.094;5.232;2023-02-20T06:41:42;100878.0;;;0.54;100.0
63954;BME280;50128;52.094;5.232;2023-02-20T06:43:19;100878.0;;;0.61;100.0
63954;BME280;50128;52.094;5.232;2023-02-20T06:44:56;100875.0;;;0.54;100.0
63954;BME280;50128;52.094;5.232;2023-02-20T06:48:10;100877.0;;;0.63;100.0
63954;BME280;50128;52.094;5.232;2023-02-20T06:49:48;100880.0;;;0.58;100.0
63954;BME280;50128;52.094;5.232;2023-02-20T06:51:26;100876.0;;;0.58;100.0
63954;BME280;50128;52.094;5.232;2023-02-20T06:53:04;100869.0;;;0.63;100.0
63954;BME280;50128;52.094;5.232;2023-02-20T06:56:20;100864.0;;;0.63;100.0
63954;BME280;50128;52.094;5.232;2023-02-20T06:57:59;100873.0;;;0.54;100.0
63954;BME280;50128;52.094;5.232;2023-02-20T06:59:40;100877.0;;;0.63;100.0
63954;BME280;50128;52.094;5.232;2023-02-20T07:02:59;100874.0;;;0.6;100.0
63954;BME280;50128;52.094;5.232;2023-02-20T07:04:36;100877.0;;;0.58;100.0
63954;BME280;50128;52.094;5.232;2023-02-20T07:06:13;100878.0;;;0.59;100.0
63954;BME280;50128;52.094;5.232;2023-02-20T07:11:05;100882.0;;;0.54;100.0
63954;BME280;50128;52.094;5.232;2023-02-20T07:12:42;100882.0;;;0.59;100.0
63954;BME280;50128;52.094;5.232;2023-02-20T07:14:18;100880.0;;;0.57;100.0
63954;BME280;50128;52.094;5.232;2023-02-20T07:17:32;100886.0;;;0.54;100.0
63954;BME280;50128;52.094;5.232;2023-02-20T07:19:10;100885.0;;;0.59;100.0
63954;BME280;50128;52.094;5.232;2023-02-20T07:20:47;100882.0;;;0.6;100.0
63954;BME280;50128;52.094;5.232;2023-02-20T07:22:26;100882.0;;;0.6;100.0
63954;BME280;50128;52.094;5.232;2023-02-20T07:25:42;100885.0;;;0.58;100.0
63954;BME280;50128;52.094;5.232;2023-02-20T07:27:19;100883.0;;;0.65;100.0
63954;BME280;50128;52.094;5.232;2023-02-20T07:28:57;100884.0;;;0.66;100.0
63954;BME280;50128;52.094;5.232;2023-02-20T07:32:11;100884.0;;;0.7;100.0
63954;BME280;50128;52.094;5.232;2023-02-20T07:33:49;100888.0;;;0.69;100.0
63954;BME280;50128;52.094;5.232;2023-02-20T07:37:02;100884.0;;;0.69;100.0
63954;BME280;50128;52.094;5.232;2023-02-20T07:40:16;100876.0;;;0.71;100.0
63954;BME280;50128;52.094;5.232;2023-02-20T07:41:54;100880.0;;;0.79;100.0
63954;BME280;50128;52.094;5.232;2023-02-20T07:43:32;100882.0;;;0.75;100.0
63954;BME280;50128;52.094;5.232;2023-02-20T07:46:46;100882.0;;;0.76;100.0
63954;BME280;50128;52.094;5.232;2023-02-20T07:48:22;100888.0;;;0.8;100.0
63954;BME280;50128;52.094;5.232;2023-02-20T07:49:59;100887.0;;;0.78;100.0
63954;BME280;50128;52.094;5.232;2023-02-20T07:51:35;100884.0;;;0.72;100.0
63954;BME280;50128;52.094;5.232;2023-02-20T07:54:51;100887.0;;;0.78;100.0
63954;BME280;50128;52.094;5.232;2023-02-20T07:56:27;100889.0;;;0.84;100.0
63954;BME280;50128;52.094;5.232;2023-02-20T07:58:05;100889.0;;;0.89;100.0
63954;BME280;50128;52.094;5.232;2023-02-20T08:01:18;100890.0;;;0.9;100.0
63954;BME280;50128;52.094;5.232;2023-02-20T08:02:54;100884.0;;;0.85;100.0
63954;BME280;50128;52.094;5.232;2023-02-20T08:04:31;100888.0;;;0.88;100.0
63954;BME280;50128;52.094;5.232;2023-02-20T08:07:44;100886.0;;;0.87;100.0
63954;BME280;50128;52.094;5.232;2023-02-20T08:09:20;100889.0;;;0.82;100.0
63954;BME280;50128;52.094;5.232;2023-02-20T08:10:57;100878.0;;;0.89;100.0
63954;BME280;50128;52.094;5.232;2023-02-20T08:12:34;100880.0;;;0.86;100.0
63954;BME280;50128;52.094;5.232;2023-02-20T08:15:49;100878.0;;;0.87;100.0
63954;BME280;50128;52.094;5.232;2023-02-20T08:17:25;100878.0;;;0.89;100.0
63954;BME280;50128;52.094;5.232;2023-02-20T08:19:01;100878.0;;;0.9;100.0
63954;BME280;50128;52.094;5.232;2023-02-20T08:22:14;100882.0;;;0.89;100.0
63954;BME280;50128;52.094;5.232;2023-02-20T08:23:51;100885.0;;;0.95;100.0
63954;BME280;50128;52.094;5.232;2023-02-20T08:25:27;100884.0;;;0.94;100.0
63954;BME280;50128;52.094;5.232;2023-02-20T08:28:40;100882.0;;;0.99;100.0
63954;BME280;50128;52.094;5.232;2023-02-20T08:30:20;100883.0;;;1.07;100.0
63954;BME280;50128;52.094;5.232;2023-02-20T08:31:58;100880.0;;;1.08;100.0
63954;BME280;50128;52.094;5.232;2023-02-20T08:33:34;100881.0;;;1.05;100.0
63954;BME280;50128;52.094;5.232;2023-02-20T08:36:47;100880.0;;;1.12;100.0
63954;BME280;50128;52.094;5.232;2023-02-20T08:38:26;100875.0;;;1.19;100.0
63954;BME280;50128;52.094;5.232;2023-02-20T08:40:07;100872.0;;;1.21;100.0
63954;BME280;50128;52.094;5.232;2023-02-20T08:43:23;100877.0;;;1.14;100.0
63954;BME280;50128;52.094;5.232;2023-02-20T08:44:59;100869.0;;;1.19;100.0
63954;BME280;50128;52.094;5.232;2023-02-20T08:46:35;100864.0;;;1.23;100.0
63954;BME280;50128;52.094;5.232;2023-02-20T08:48:12;100871.0;;;1.14;100.0
63954;BME280;50128;52.094;5.232;2023-02-20T08:51:25;100867.0;;;1.15;100.0
63954;BME280;50128;52.094;5.232;2023-02-20T08:53:01;100869.0;;;1.12;100.0
63954;BME280;50128;52.094;5.232;2023-02-20T08:54:37;100869.0;;;1.1;100.0
63954;BME280;50128;52.094;5.232;2023-02-20T08:57:55;100865.0;;;1.13;100.0
63954;BME280;50128;52.094;5.232;2023-02-20T08:59:31;100871.0;;;1.13;100.0
63954;BME280;50128;52.094;5.232;2023-02-20T09:01:07;100866.0;;;1.1;100.0
63954;BME280;50128;52.094;5.232;2023-02-20T09:02:45;100875.0;;;1.16;100.0
63954;BME280;50128;52.094;5.232;2023-02-20T09:06:00;100874.0;;;1.16;100.0
63954;BME280;50128;52.094;5.232;2023-02-20T09:07:36;100873.0;;;1.18;100.0
63954;BME280;50128;52.094;5.232;2023-02-20T09:09:12;100864.0;;;1.15;100.0
63954;BME280;50128;52.094;5.232;2023-02-20T09:12:24;100865.0;;;1.19;100.0
63954;BME280;50128;52.094;5.232;2023-02-20T09:14:00;100856.0;;;1.16;100.0
63954;BME280;50128;52.094;5.232;2023-02-20T09:15:39;100863.0;;;1.22;100.0
63954;BME280;50128;52.094;5.232;2023-02-20T09:18:54;100865.0;;;1.22;100.0
63954;BME280;50128;52.094;5.232;2023-02-20T09:20:31;100858.0;;;1.16;100.0
63954;BME280;50128;52.094;5.232;2023-02-20T09:22:07;100863.0;;;1.23;100.0
63954;BME280;50128;52.094;5.232;2023-02-20T09:23:44;100864.0;;;1.34;100.0
63954;BME280;50128;52.094;5.232;2023-02-20T09:26:57;100856.0;;;1.25;100.0
63954;BME280;50128;52.094;5.232;2023-02-20T09:28:33;100864.0;;;1.24;100.0
63954;BME280;50128;52.094;5.232;2023-02-20T09:30:14;100859.0;;;1.28;100.0
63954;BME280;50128;52.094;5.232;2023-02-20T09:33:29;100865.0;;;1.26;100.0
63954;BME280;50128;52.094;5.232;2023-02-20T09:35:05;100865.0;;;1.26;100.0
63954;BME280;50128;52.094;5.232;2023-02-20T09:36:41;100863.0;;;1.16;100.0
63954;BME280;50128;52.094;5.232;2023-02-20T09:38:17;100864.0;;;1.3;100.0
63954;BME280;50128;52.094;5.232;2023-02-20T09:41:41;100868.0;;;1.27;100.0
63954;BME280;50128;52.094;5.232;2023-02-20T09:43:29;100872.0;;;1.23;100.0
63954;BME280;50128;52.094;5.232;2023-02-20T09:45:18;100870.0;;;1.24;100.0
63954;BME280;50128;52.094;5.232;2023-02-20T09:47:02;100877.0;;;1.33;100.0
63954;BME280;50128;52.094;5.232;2023-02-20T09:50:47;100877.0;;;1.41;100.0
63954;BME280;50128;52.094;5.232;2023-02-20T09:52:28;100884.0;;;1.4;100.0
63954;BME280;50128;52.094;5.232;2023-02-20T09:54:08;100882.0;;;1.42;100.0
63954;BME280;50128;52.094;5.232;2023-02-20T09:55:47;100883.0;;;1.45;100.0
63954;BME280;50128;52.094;5.232;2023-02-20T09:57:26;100882.0;;;1.49;100.0
63954;BME280;50128;52.094;5.232;2023-02-20T10:00:49;100880.0;;;1.49;100.0
63954;BME280;50128;52.094;5.232;2023-02-20T10:02:28;100877.0;;;1.53;100.0
63954;BME280;50128;52.094;5.232;2023-02-20T10:04:10;100876.0;;;1.54;100.0
63954;BME280;50128;52.094;5.232;2023-02-20T10:05:49;100875.0;;;1.57;100.0
63954;BME280;50128;52.094;5.232;2023-02-20T10:09:09;100864.0;;;1.56;100.0
63954;BME280;50128;52.094;5.232;2023-02-20T10:10:49;100865.0;;;1.53;100.0
63954;BME280;50128;52.094;5.232;2023-02-20T10:12:30;100862.0;;;1.51;100.0
63954;BME280;50128;52.094;5.232;2023-02-20T10:14:31;100860.0;;;1.49;100.0
63954;BME280;50128;52.094;5.232;2023-02-20T10:16:18;100858.0;;;1.55;100.0
63954;BME280;50128;52.094;5.232;2023-02-20T10:19:55;100857.0;;;1.56;100.0
63954;BME280;50128;52.094;5.232;2023-02-20T10:21:46;100867.0;;;1.55;100.0
63954;BME280;50128;52.094;5.232;2023-02-20T10:23:34;100867.0;;;1.6;100.0
63954;BME280;50128;52.094;5.232;2023-02-20T10:25:23;100876.0;;;1.64;100.0
63954;BME280;50128;52.094;5.232;2023-02-20T10:27:15;100876.0;;;1.63;100.0
63954;BME280;50128;52.094;5.232;2023-02-20T10:29:04;100873.0;;;1.56;100.0
63954;BME280;50128;52.094;5.232;2023-02-20T10:30:55;100878.0;;;1.55;100.0
63954;BME280;50128;52.094;5.232;2023-02-20T10:34:22;100873.0;;;1.62;100.0
63954;BME280;50128;52.094;5.232;2023-02-20T10:36:09;100868.0;;;1.65;100.0
63954;BME280;50128;52.094;5.232;2023-02-20T10:37:52;100858.0;;;1.58;100.0
63954;BME280;50128;52.094;5.232;2023-02-20T10:39:30;100864.0;;;1.54;100.0
63954;BME280;50128;52.094;5.232;2023-02-20T10:41:14;100878.0;;;1.65;100.0
63954;BME280;50128;52.094;5.232;2023-02-20T10:44:46;100868.0;;;1.65;100.0
63954;BME280;50128;52.094;5.232;2023-02-20T10:46:29;100857.0;;;1.68;100.0
63954;BME280;50128;52.094;5.232;2023-02-20T10:48:10;100843.0;;;1.65;100.0
63954;BME280;50128;52.094;5.232;2023-02-20T10:49:51;100857.0;;;1.68;100.0
63954;BME280;50128;52.094;5.232;2023-02-20T10:51:35;100866.0;;;1.76;100.0
63954;BME280;50128;52.094;5.232;2023-02-20T10:55:05;100857.0;;;1.74;100.0
63954;BME280;50128;52.094;5.232;2023-02-20T10:56:51;100863.0;;;1.77;100.0
63954;BME280;50128;52.094;5.232;2023-02-20T10:58:36;100856.0;;;1.79;100.0
63954;BME280;50128;52.094;5.232;2023-02-20T11:00:19;100859.0;;;1.74;100.0
63954;BME280;50128;52.094;5.232;2023-02-20T11:01:59;100863.0;;;1.78;100.0
63954;BME280;50128;52.094;5.232;2023-02-20T11:05:24;100881.0;;;1.77;100.0
63954;BME280;50128;52.094;5.232;2023-02-20T11:07:07;100872.0;;;1.75;100.0
63954;BME280;50128;52.094;5.232;2023-02-20T11:08:47;100870.0;;;1.76;100.0
63954;BME280;50128;52.094;5.232;2023-02-20T11:10:23;100847.0;;;1.68;100.0
63954;BME280;50128;52.094;5.232;2023-02-20T11:13:37;100837.0;;;1.65;100.0
63954;BME280;50128;52.094;5.232;2023-02-20T11:15:17;100847.0;;;1.67;100.0
63954;BME280;50128;52.094;5.232;2023-02-20T11:16:58;100843.0;;;1.69;100.0
63954;BME280;50128;52.094;5.232;2023-02-20T11:20:44;100862.0;;;1.72;100.0
63954;BME280;50128;52.094;5.232;2023-02-20T11:22:42;100858.0;;;1.69;100.0
63954;BME280;50128;52.094;5.232;2023-02-20T11:24:26;100855.0;;;1.69;100.0
63954;BME280;50128;52.094;5.232;2023-02-20T11:26:39;100855.0;;;1.61;100.0
63954;BME280;50128;52.094;5.232;2023-02-20T11:28:17;100867.0;;;1.67;100.0
63954;BME280;50128;52.094;5.232;2023-02-20T11:30:00;100866.0;;;1.65;100.0
63954;BME280;50128;52.094;5.232;2023-02-20T11:31:39;100853.0;;;1.64;100.0